sensor_id;sensor_type;location;lat;lon;timestamp;pressure;altitude;pressure_sealevel;temperature;humidity
38912;BME280;28444;48.056;14.408;2024-03-07T00:00:18;97918.06;;;6.33;87.14
38912;BME280;28444;48.056;14.408;2024-03-07T00:02:50;97924.09;;;6.39;86.62
38912;BME280;28444;48.056;14.408;2024-03-07T00:05:20;97923.38;;;6.38;86.05
38912;BME280;28444;48.056;14.408;2024-03-07T00:07:47;97924.09;;;6.39;85.17
38912;BME280;28444;48.056;14.408;2024-03-07T00:10:17;97917.50;;;6.47;85.78
38912;BME280;28444;48.056;14.408;2024-03-07T00:12:47;97909.03;;;6.51;86.28
38912;BME280;28444;48.056;14.408;2024-03-07T00:15:14;97916.06;;;6.46;86.40
38912;BME280;28444;48.056;14.408;2024-03-07T00:17:42;97914.47;;;6.51;86.90
38912;BME280;28444;48.056;14.408;2024-03-07T00:20:10;97913.13;;;6.44;87.73
38912;BME280;28444;48.056;14.408;2024-03-07T00:22:41;97917.63;;;6.42;87.99
38912;BME280;28444;48.056;14.408;2024-03-07T00:25:08;97904.38;;;6.25;89.14
38912;BME280;28444;48.056;14.408;2024-03-07T00:27:36;97902.41;;;6.25;90.24
38912;BME280;28444;48.056;14.408;2024-03-07T00:30:05;97915.75;;;6.23;91.99
38912;BME280;28444;48.056;14.408;2024-03-07T00:32:31;97912.75;;;6.14;93.28
38912;BME280;28444;48.056;14.408;2024-03-07T00:35:02;97914.84;;;5.94;94.86
38912;BME280;28444;48.056;14.408;2024-03-07T00:37:29;97911.38;;;5.94;95.93
38912;BME280;28444;48.056;14.408;2024-03-07T00:39:57;97918.56;;;5.78;95.33
38912;BME280;28444;48.056;14.408;2024-03-07T00:42:24;97921.69;;;5.82;94.14
38912;BME280;28444;48.056;14.408;2024-03-07T00:44:51;97907.81;;;5.86;94.07
38912;BME280;28444;48.056;14.408;2024-03-07T00:47:17;97917.22;;;5.85;94.50
38912;BME280;28444;48.056;14.408;2024-03-07T00:49:45;97921.38;;;5.86;93.37
38912;BME280;28444;48.056;14.408;2024-03-07T00:52:14;97920.13;;;5.87;93.82
38912;BME280;28444;48.056;14.408;2024-03-07T00:54:42;97911.78;;;5.85;92.91
38912;BME280;28444;48.056;14.408;2024-03-07T00:57:09;97916.25;;;5.69;94.80
38912;BME280;28444;48.056;14.408;2024-03-07T00:59:35;97920.53;;;5.64;92.50
38912;BME280;28444;48.056;14.408;2024-03-07T01:02:02;97919.75;;;5.50;92.01
38912;BME280;28444;48.056;14.408;2024-03-07T01:04:30;97911.19;;;5.46;90.41
38912;BME280;28444;48.056;14.408;2024-03-07T01:07:00;97914.72;;;5.28;89.68
38912;BME280;28444;48.056;14.408;2024-03-07T01:09:28;97907.53;;;5.30;88.14
38912;BME280;28444;48.056;14.408;2024-03-07T01:11:55;97910.13;;;5.23;86.41
38912;BME280;28444;48.056;14.408;2024-03-07T01:14:22;97904.94;;;5.06;86.73
38912;BME280;28444;48.056;14.408;2024-03-07T01:16:49;97909.69;;;5.00;86.23
38912;BME280;28444;48.056;14.408;2024-03-07T01:19:16;97907.59;;;4.93;86.42
38912;BME280;28444;48.056;14.408;2024-03-07T01:21:43;97907.72;;;5.00;85.33
38912;BME280;28444;48.056;14.408;2024-03-07T01:24:09;97912.06;;;4.90;85.19
38912;BME280;28444;48.056;14.408;2024-03-07T01:26:36;97915.50;;;4.72;85.99
38912;BME280;28444;48.056;14.408;2024-03-07T01:29:03;97912.44;;;4.81;85.64
38912;BME280;28444;48.056;14.408;2024-03-07T01:31:31;97911.13;;;4.69;85.58
38912;BME280;28444;48.056;14.408;2024-03-07T01:34:05;97917.00;;;4.73;85.55
38912;BME280;28444;48.056;14.408;2024-03-07T01:36:44;97918.47;;;4.55;85.13
38912;BME280;28444;48.056;14.408;2024-03-07T01:39:11;97921.38;;;4.38;85.60
38912;BME280;28444;48.056;14.408;2024-03-07T01:41:43;97919.22;;;4.31;85.97
38912;BME280;28444;48.056;14.408;2024-03-07T01:44:10;97912.25;;;4.17;86.11
38912;BME280;28444;48.056;14.408;2024-03-07T01:46:37;97918.47;;;4.12;86.07
38912;BME280;28444;48.056;14.408;2024-03-07T01:49:04;97914.88;;;4.03;86.08
38912;BME280;28444;48.056;14.408;2024-03-07T01:51:35;97918.16;;;3.96;85.90
38912;BME280;28444;48.056;14.408;2024-03-07T01:54:02;97921.63;;;3.91;85.97
38912;BME280;28444;48.056;14.408;2024-03-07T01:56:29;97923.44;;;3.83;86.16
38912;BME280;28444;48.056;14.408;2024-03-07T01:58:57;97920.78;;;3.77;85.73
38912;BME280;28444;48.056;14.408;2024-03-07T02:01:27;97923.38;;;3.64;85.94
38912;BME280;28444;48.056;14.408;2024-03-07T02:03:54;97924.16;;;3.59;86.74
38912;BME280;28444;48.056;14.408;2024-03-07T02:06:21;97917.81;;;3.56;86.17
38912;BME280;28444;48.056;14.408;2024-03-07T02:08:48;97909.00;;;3.50;86.60
38912;BME280;28444;48.056;14.408;2024-03-07T02:11:15;97915.75;;;3.62;86.04
38912;BME280;28444;48.056;14.408;2024-03-07T02:13:42;97918.03;;;3.58;86.36
38912;BME280;28444;48.056;14.408;2024-03-07T02:16:08;97920.22;;;3.60;85.64
38912;BME280;28444;48.056;14.408;2024-03-07T02:18:36;97912.59;;;3.58;85.87
38912;BME280;28444;48.056;14.408;2024-03-07T02:21:08;97910.72;;;3.78;87.07
38912;BME280;28444;48.056;14.408;2024-03-07T02:23:35;97910.31;;;3.93;85.14
38912;BME280;28444;48.056;14.408;2024-03-07T02:26:02;97908.94;;;4.05;86.12
38912;BME280;28444;48.056;14.408;2024-03-07T02:28:29;97911.69;;;4.24;84.51
38912;BME280;28444;48.056;14.408;2024-03-07T02:30:56;97915.09;;;4.05;84.81
38912;BME280;28444;48.056;14.408;2024-03-07T02:33:23;97907.84;;;4.14;85.54
38912;BME280;28444;48.056;14.408;2024-03-07T02:35:50;97901.66;;;4.19;86.19
38912;BME280;28444;48.056;14.408;2024-03-07T02:38:17;97915.03;;;4.11;85.71
38912;BME280;28444;48.056;14.408;2024-03-07T02:40:44;97909.09;;;4.13;86.02
38912;BME280;28444;48.056;14.408;2024-03-07T02:43:11;97914.25;;;4.16;86.18
38912;BME280;28444;48.056;14.408;2024-03-07T02:45:38;97913.38;;;4.27;85.71
38912;BME280;28444;48.056;14.408;2024-03-07T02:48:05;97912.34;;;4.30;86.09
38912;BME280;28444;48.056;14.408;2024-03-07T02:50:36;97915.00;;;4.35;85.80
38912;BME280;28444;48.056;14.408;2024-03-07T02:53:05;97912.47;;;4.43;85.92
38912;BME280;28444;48.056;14.408;2024-03-07T02:55:32;97912.00;;;4.39;85.06
38912;BME280;28444;48.056;14.408;2024-03-07T02:57:59;97917.63;;;4.41;85.60
38912;BME280;28444;48.056;14.408;2024-03-07T03:00:26;97917.34;;;4.45;86.00
38912;BME280;28444;48.056;14.408;2024-03-07T03:02:53;97910.38;;;4.49;85.32
38912;BME280;28444;48.056;14.408;2024-03-07T03:05:21;97910.63;;;4.51;85.39
38912;BME280;28444;48.056;14.408;2024-03-07T03:07:49;97917.16;;;4.62;85.33
38912;BME280;28444;48.056;14.408;2024-03-07T03:10:23;97912.50;;;4.56;85.11
38912;BME280;28444;48.056;14.408;2024-03-07T03:12:56;97914.72;;;4.58;85.06
38912;BME280;28444;48.056;14.408;2024-03-07T03:15:28;97918.75;;;4.51;84.94
38912;BME280;28444;48.056;14.408;2024-03-07T03:17:55;97911.69;;;4.43;83.26
38912;BME280;28444;48.056;14.408;2024-03-07T03:20:26;97912.28;;;4.35;84.38
38912;BME280;28444;48.056;14.408;2024-03-07T03:23:00;97912.81;;;4.34;84.89
38912;BME280;28444;48.056;14.408;2024-03-07T03:25:45;97910.91;;;4.29;84.72
38912;BME280;28444;48.056;14.408;2024-03-07T03:28:12;97910.16;;;4.28;85.01
38912;BME280;28444;48.056;14.408;2024-03-07T03:30:39;97915.28;;;4.32;85.21
38912;BME280;28444;48.056;14.408;2024-03-07T03:33:07;97912.06;;;4.33;86.59
38912;BME280;28444;48.056;14.408;2024-03-07T03:35:34;97908.63;;;4.33;85.21
38912;BME280;28444;48.056;14.408;2024-03-07T03:38:01;97908.19;;;4.29;85.06
38912;BME280;28444;48.056;14.408;2024-03-07T03:40:28;97910.97;;;4.23;84.35
38912;BME280;28444;48.056;14.408;2024-03-07T03:42:55;97908.53;;;4.20;85.18
38912;BME280;28444;48.056;14.408;2024-03-07T03:45:22;97905.34;;;4.21;85.21
38912;BME280;28444;48.056;14.408;2024-03-07T03:47:48;97911.97;;;4.20;85.58
38912;BME280;28444;48.056;14.408;2024-03-07T03:50:15;97905.38;;;4.16;85.71
38912;BME280;28444;48.056;14.408;2024-03-07T03:52:42;97911.09;;;4.12;85.61
38912;BME280;28444;48.056;14.408;2024-03-07T03:55:09;97905.78;;;4.25;86.54
38912;BME280;28444;48.056;14.408;2024-03-07T03:57:38;97906.13;;;4.35;87.36
38912;BME280;28444;48.056;14.408;2024-03-07T04:00:06;97906.28;;;4.43;87.50
38912;BME280;28444;48.056;14.408;2024-03-07T04:02:44;97900.13;;;4.42;86.81
38912;BME280;28444;48.056;14.408;2024-03-07T04:05:16;97905.84;;;4.39;86.29
38912;BME280;28444;48.056;14.408;2024-03-07T04:07:43;97905.22;;;4.51;86.90
38912;BME280;28444;48.056;14.408;2024-03-07T04:10:11;97903.91;;;4.58;86.69
38912;BME280;28444;48.056;14.408;2024-03-07T04:12:39;97911.41;;;4.46;86.78
38912;BME280;28444;48.056;14.408;2024-03-07T04:15:09;97905.63;;;4.37;85.95
38912;BME280;28444;48.056;14.408;2024-03-07T04:17:38;97902.50;;;4.32;86.32
38912;BME280;28444;48.056;14.408;2024-03-07T04:20:06;97914.25;;;4.35;86.08
38912;BME280;28444;48.056;14.408;2024-03-07T04:22:37;97913.63;;;4.29;87.17
38912;BME280;28444;48.056;14.408;2024-03-07T04:25:07;97909.22;;;4.26;87.72
38912;BME280;28444;48.056;14.408;2024-03-07T04:27:34;97907.97;;;4.27;87.66
38912;BME280;28444;48.056;14.408;2024-03-07T04:30:04;97911.78;;;4.37;88.22
38912;BME280;28444;48.056;14.408;2024-03-07T04:32:31;97903.72;;;4.31;88.02
38912;BME280;28444;48.056;14.408;2024-03-07T04:34:58;97905.78;;;4.25;88.25
38912;BME280;28444;48.056;14.408;2024-03-07T04:37:25;97911.91;;;4.26;89.03
38912;BME280;28444;48.056;14.408;2024-03-07T04:39:53;97907.81;;;4.38;88.32
38912;BME280;28444;48.056;14.408;2024-03-07T04:42:20;97910.09;;;4.34;88.51
38912;BME280;28444;48.056;14.408;2024-03-07T04:44:47;97907.63;;;4.36;88.78
38912;BME280;28444;48.056;14.408;2024-03-07T04:47:13;97910.03;;;4.40;89.38
38912;BME280;28444;48.056;14.408;2024-03-07T04:49:40;97906.44;;;4.31;87.71
38912;BME280;28444;48.056;14.408;2024-03-07T04:52:07;97906.81;;;4.41;88.94
38912;BME280;28444;48.056;14.408;2024-03-07T04:54:33;97909.38;;;4.33;87.57
38912;BME280;28444;48.056;14.408;2024-03-07T04:57:00;97909.25;;;4.20;88.87
38912;BME280;28444;48.056;14.408;2024-03-07T04:59:27;97908.91;;;4.10;89.17
38912;BME280;28444;48.056;14.408;2024-03-07T05:01:54;97914.03;;;4.14;89.99
38912;BME280;28444;48.056;14.408;2024-03-07T05:04:20;97908.38;;;4.12;90.43
38912;BME280;28444;48.056;14.408;2024-03-07T05:06:50;97914.41;;;4.24;91.02
38912;BME280;28444;48.056;14.408;2024-03-07T05:09:16;97913.47;;;4.21;91.15
38912;BME280;28444;48.056;14.408;2024-03-07T05:11:49;97905.53;;;4.23;91.09
38912;BME280;28444;48.056;14.408;2024-03-07T05:14:20;97912.22;;;4.22;91.35
38912;BME280;28444;48.056;14.408;2024-03-07T05:16:48;97917.91;;;4.19;92.36
38912;BME280;28444;48.056;14.408;2024-03-07T05:19:35;97911.22;;;3.76;94.39
38912;BME280;28444;48.056;14.408;2024-03-07T05:22:02;97915.72;;;3.68;95.89
38912;BME280;28444;48.056;14.408;2024-03-07T05:24:32;97916.63;;;3.76;97.70
38912;BME280;28444;48.056;14.408;2024-03-07T05:27:00;97921.41;;;3.65;97.57
38912;BME280;28444;48.056;14.408;2024-03-07T05:29:27;97928.06;;;3.64;98.14
38912;BME280;28444;48.056;14.408;2024-03-07T05:31:54;97926.50;;;3.44;98.29
38912;BME280;28444;48.056;14.408;2024-03-07T05:34:20;97924.97;;;3.24;100.00
38912;BME280;28444;48.056;14.408;2024-03-07T05:36:50;97930.41;;;3.18;100.00
38912;BME280;28444;48.056;14.408;2024-03-07T05:39:17;97930.97;;;3.05;100.00
38912;BME280;28444;48.056;14.408;2024-03-07T05:41:45;97930.47;;;3.07;100.00
38912;BME280;28444;48.056;14.408;2024-03-07T05:44:12;97932.88;;;3.16;100.00
38912;BME280;28444;48.056;14.408;2024-03-07T05:46:41;97935.38;;;3.08;100.00
38912;BME280;28444;48.056;14.408;2024-03-07T05:49:13;97929.91;;;3.20;100.00
38912;BME280;28444;48.056;14.408;2024-03-07T05:51:43;97932.16;;;3.46;100.00
38912;BME280;28444;48.056;14.408;2024-03-07T05:54:12;97930.59;;;3.56;100.00
38912;BME280;28444;48.056;14.408;2024-03-07T05:56:40;97938.28;;;3.46;98.55
38912;BME280;28444;48.056;14.408;2024-03-07T05:59:08;97935.81;;;3.18;99.26
38912;BME280;28444;48.056;14.408;2024-03-07T06:01:36;97938.56;;;3.12;100.00
38912;BME280;28444;48.056;14.408;2024-03-07T06:04:05;97939.94;;;3.25;100.00
38912;BME280;28444;48.056;14.408;2024-03-07T06:06:33;97948.88;;;3.44;100.00
38912;BME280;28444;48.056;14.408;2024-03-07T06:09:07;97949.38;;;3.43;100.00
38912;BME280;28444;48.056;14.408;2024-03-07T06:11:35;97948.19;;;3.38;100.00
38912;BME280;28444;48.056;14.408;2024-03-07T06:14:03;97950.63;;;3.42;98.68
38912;BME280;28444;48.056;14.408;2024-03-07T06:16:31;97944.53;;;3.35;98.51
38912;BME280;28444;48.056;14.408;2024-03-07T06:19:03;97945.63;;;3.51;99.47
38912;BME280;28444;48.056;14.408;2024-03-07T06:21:30;97952.44;;;3.58;99.11
38912;BME280;28444;48.056;14.408;2024-03-07T06:24:00;97944.56;;;3.60;97.57
38912;BME280;28444;48.056;14.408;2024-03-07T06:26:35;97947.16;;;3.41;96.43
38912;BME280;28444;48.056;14.408;2024-03-07T06:29:14;97951.19;;;3.34;96.84
38912;BME280;28444;48.056;14.408;2024-03-07T06:31:43;97948.31;;;3.21;96.13
38912;BME280;28444;48.056;14.408;2024-03-07T06:34:13;97950.38;;;3.09;97.84
38912;BME280;28444;48.056;14.408;2024-03-07T06:36:40;97959.69;;;3.08;99.47
38912;BME280;28444;48.056;14.408;2024-03-07T06:39:09;97957.53;;;3.01;98.39
38912;BME280;28444;48.056;14.408;2024-03-07T06:41:37;97967.78;;;3.08;99.42
38912;BME280;28444;48.056;14.408;2024-03-07T06:44:04;97960.94;;;3.07;99.53
38912;BME280;28444;48.056;14.408;2024-03-07T06:46:31;97960.19;;;3.12;99.13
38912;BME280;28444;48.056;14.408;2024-03-07T06:49:00;97955.78;;;3.09;98.41
38912;BME280;28444;48.056;14.408;2024-03-07T06:51:27;97964.59;;;3.10;99.78
38912;BME280;28444;48.056;14.408;2024-03-07T06:53:54;97964.81;;;3.12;100.00
38912;BME280;28444;48.056;14.408;2024-03-07T06:56:23;97960.38;;;3.14;99.43
38912;BME280;28444;48.056;14.408;2024-03-07T06:58:51;97957.59;;;3.26;99.00
38912;BME280;28444;48.056;14.408;2024-03-07T07:01:17;97960.75;;;3.35;99.09
38912;BME280;28444;48.056;14.408;2024-03-07T07:03:46;97959.66;;;3.50;99.28
38912;BME280;28444;48.056;14.408;2024-03-07T07:06:15;97964.88;;;3.42;98.98
38912;BME280;28444;48.056;14.408;2024-03-07T07:08:43;97970.28;;;3.42;97.35
38912;BME280;28444;48.056;14.408;2024-03-07T07:11:12;97963.31;;;3.52;96.73
38912;BME280;28444;48.056;14.408;2024-03-07T07:13:39;97968.25;;;3.48;96.50
38912;BME280;28444;48.056;14.408;2024-03-07T07:16:08;97966.09;;;3.41;98.44
38912;BME280;28444;48.056;14.408;2024-03-07T07:18:36;97964.63;;;3.40;98.26
38912;BME280;28444;48.056;14.408;2024-03-07T07:21:03;97968.50;;;3.50;98.78
38912;BME280;28444;48.056;14.408;2024-03-07T07:23:30;97960.38;;;3.50;98.08
38912;BME280;28444;48.056;14.408;2024-03-07T07:25:57;97959.97;;;3.41;98.27
38912;BME280;28444;48.056;14.408;2024-03-07T07:28:24;97964.38;;;3.44;99.10
38912;BME280;28444;48.056;14.408;2024-03-07T07:30:51;97959.38;;;3.53;99.30
38912;BME280;28444;48.056;14.408;2024-03-07T07:33:18;97958.56;;;3.64;99.25
38912;BME280;28444;48.056;14.408;2024-03-07T07:35:45;97955.22;;;3.77;98.23
38912;BME280;28444;48.056;14.408;2024-03-07T07:38:12;97954.19;;;3.85;98.22
38912;BME280;28444;48.056;14.408;2024-03-07T07:40:42;97947.13;;;3.77;98.13
38912;BME280;28444;48.056;14.408;2024-03-07T07:43:09;97947.69;;;3.94;96.87
38912;BME280;28444;48.056;14.408;2024-03-07T07:45:51;97951.38;;;3.97;96.86
38912;BME280;28444;48.056;14.408;2024-03-07T07:48:18;97943.28;;;4.16;96.90
38912;BME280;28444;48.056;14.408;2024-03-07T07:50:46;97942.19;;;4.24;95.67
38912;BME280;28444;48.056;14.408;2024-03-07T07:53:15;97945.25;;;4.40;95.15
38912;BME280;28444;48.056;14.408;2024-03-07T07:55:41;97939.41;;;4.54;96.09
38912;BME280;28444;48.056;14.408;2024-03-07T07:58:08;97941.72;;;4.64;94.49
38912;BME280;28444;48.056;14.408;2024-03-07T08:00:35;97935.28;;;4.67;93.91
38912;BME280;28444;48.056;14.408;2024-03-07T08:03:06;97931.13;;;4.66;92.63
38912;BME280;28444;48.056;14.408;2024-03-07T08:05:35;97938.16;;;4.74;92.57
38912;BME280;28444;48.056;14.408;2024-03-07T08:08:04;97936.47;;;4.90;93.64
38912;BME280;28444;48.056;14.408;2024-03-07T08:10:35;97937.69;;;4.89;92.99
38912;BME280;28444;48.056;14.408;2024-03-07T08:13:04;97939.25;;;4.85;92.62
38912;BME280;28444;48.056;14.408;2024-03-07T08:15:33;97938.84;;;4.94;92.44
38912;BME280;28444;48.056;14.408;2024-03-07T08:18:00;97934.41;;;4.96;92.42
38912;BME280;28444;48.056;14.408;2024-03-07T08:20:28;97933.59;;;5.01;91.32
38912;BME280;28444;48.056;14.408;2024-03-07T08:22:55;97936.94;;;5.07;91.04
38912;BME280;28444;48.056;14.408;2024-03-07T08:25:24;97933.84;;;5.17;90.56
38912;BME280;28444;48.056;14.408;2024-03-07T08:27:53;97932.31;;;5.21;90.04
38912;BME280;28444;48.056;14.408;2024-03-07T08:30:20;97937.66;;;5.27;91.28
38912;BME280;28444;48.056;14.408;2024-03-07T08:32:49;97937.47;;;5.38;90.96
38912;BME280;28444;48.056;14.408;2024-03-07T08:35:17;97947.50;;;5.11;89.66
38912;BME280;28444;48.056;14.408;2024-03-07T08:37:47;97946.03;;;5.10;89.51
38912;BME280;28444;48.056;14.408;2024-03-07T08:40:29;97944.75;;;4.98;91.16
38912;BME280;28444;48.056;14.408;2024-03-07T08:42:59;97942.03;;;4.98;91.02
38912;BME280;28444;48.056;14.408;2024-03-07T08:45:27;97945.09;;;4.89;90.70
38912;BME280;28444;48.056;14.408;2024-03-07T08:47:55;97947.44;;;4.98;93.07
38912;BME280;28444;48.056;14.408;2024-03-07T08:50:23;97950.06;;;5.03;92.35
38912;BME280;28444;48.056;14.408;2024-03-07T08:52:51;97941.78;;;4.96;91.21
38912;BME280;28444;48.056;14.408;2024-03-07T08:55:20;97942.09;;;4.92;92.38
38912;BME280;28444;48.056;14.408;2024-03-07T08:57:47;97942.53;;;4.96;91.27
38912;BME280;28444;48.056;14.408;2024-03-07T09:00:16;97945.31;;;4.91;91.34
38912;BME280;28444;48.056;14.408;2024-03-07T09:02:59;97945.47;;;4.98;91.31
38912;BME280;28444;48.056;14.408;2024-03-07T09:05:29;97942.75;;;4.98;91.22
38912;BME280;28444;48.056;14.408;2024-03-07T09:07:56;97942.53;;;4.77;89.79
38912;BME280;28444;48.056;14.408;2024-03-07T09:10:23;97938.72;;;4.67;90.70
38912;BME280;28444;48.056;14.408;2024-03-07T09:12:57;97942.31;;;4.94;90.61
38912;BME280;28444;48.056;14.408;2024-03-07T09:15:24;97936.69;;;5.24;90.09
38912;BME280;28444;48.056;14.408;2024-03-07T09:17:51;97935.13;;;5.16;89.21
38912;BME280;28444;48.056;14.408;2024-03-07T09:20:19;97930.50;;;5.11;88.48
38912;BME280;28444;48.056;14.408;2024-03-07T09:22:47;97937.22;;;5.23;89.46
38912;BME280;28444;48.056;14.408;2024-03-07T09:25:16;97942.78;;;5.44;89.76
38912;BME280;28444;48.056;14.408;2024-03-07T09:27:44;97942.28;;;5.45;87.77
38912;BME280;28444;48.056;14.408;2024-03-07T09:30:11;97932.25;;;5.40;88.41
38912;BME280;28444;48.056;14.408;2024-03-07T09:32:50;97939.34;;;5.43;87.75
38912;BME280;28444;48.056;14.408;2024-03-07T09:35:18;97950.75;;;5.42;88.42
38912;BME280;28444;48.056;14.408;2024-03-07T09:37:44;97942.19;;;5.51;87.21
38912;BME280;28444;48.056;14.408;2024-03-07T09:40:12;97929.91;;;5.63;87.71
38912;BME280;28444;48.056;14.408;2024-03-07T09:42:46;97932.03;;;5.84;86.23
38912;BME280;28444;48.056;14.408;2024-03-07T09:45:16;97933.19;;;5.88;86.12
38912;BME280;28444;48.056;14.408;2024-03-07T09:47:46;97940.81;;;5.90;86.45
38912;BME280;28444;48.056;14.408;2024-03-07T09:50:18;97931.84;;;6.08;88.27
38912;BME280;28444;48.056;14.408;2024-03-07T09:52:46;97929.66;;;6.20;86.64
38912;BME280;28444;48.056;14.408;2024-03-07T09:55:17;97921.53;;;6.07;85.30
38912;BME280;28444;48.056;14.408;2024-03-07T09:57:47;97926.75;;;6.18;85.28
38912;BME280;28444;48.056;14.408;2024-03-07T10:00:19;97930.50;;;6.01;84.57
38912;BME280;28444;48.056;14.408;2024-03-07T10:02:54;97921.09;;;6.02;84.26
38912;BME280;28444;48.056;14.408;2024-03-07T10:05:22;97919.31;;;6.05;85.00
38912;BME280;28444;48.056;14.408;2024-03-07T10:07:50;97920.28;;;6.21;85.43
38912;BME280;28444;48.056;14.408;2024-03-07T10:10:19;97922.44;;;6.22;83.31
38912;BME280;28444;48.056;14.408;2024-03-07T10:12:48;97925.16;;;6.36;81.95
38912;BME280;28444;48.056;14.408;2024-03-07T10:15:15;97921.91;;;6.37;83.25
38912;BME280;28444;48.056;14.408;2024-03-07T10:17:44;97931.09;;;6.47;82.41
38912;BME280;28444;48.056;14.408;2024-03-07T10:20:14;97932.56;;;6.35;80.90
38912;BME280;28444;48.056;14.408;2024-03-07T10:22:41;97921.72;;;6.22;80.72
38912;BME280;28444;48.056;14.408;2024-03-07T10:25:08;97926.69;;;5.91;82.38
38912;BME280;28444;48.056;14.408;2024-03-07T10:27:36;97933.22;;;6.01;84.03
38912;BME280;28444;48.056;14.408;2024-03-07T10:30:05;97930.97;;;5.87;82.61
38912;BME280;28444;48.056;14.408;2024-03-07T10:32:34;97936.97;;;5.98;84.55
38912;BME280;28444;48.056;14.408;2024-03-07T10:35:03;97932.38;;;6.07;83.91
38912;BME280;28444;48.056;14.408;2024-03-07T10:37:30;97927.78;;;6.01;84.08
38912;BME280;28444;48.056;14.408;2024-03-07T10:39:57;97928.81;;;5.98;84.37
38912;BME280;28444;48.056;14.408;2024-03-07T10:42:28;97935.69;;;5.86;84.53
38912;BME280;28444;48.056;14.408;2024-03-07T10:45:00;97928.16;;;5.79;82.78
38912;BME280;28444;48.056;14.408;2024-03-07T10:47:30;97922.09;;;5.73;83.92
38912;BME280;28444;48.056;14.408;2024-03-07T10:50:10;97923.69;;;5.82;83.35
38912;BME280;28444;48.056;14.408;2024-03-07T10:56:24;97910.03;;;6.00;82.47
38912;BME280;28444;48.056;14.408;2024-03-07T10:59:19;97914.00;;;6.13;81.79
38912;BME280;28444;48.056;14.408;2024-03-07T11:01:57;97910.09;;;6.35;79.69
38912;BME280;28444;48.056;14.408;2024-03-07T11:04:26;97907.09;;;6.25;80.86
38912;BME280;28444;48.056;14.408;2024-03-07T11:06:53;97925.16;;;6.36;81.54
38912;BME280;28444;48.056;14.408;2024-03-07T11:09:20;97917.91;;;6.51;82.73
38912;BME280;28444;48.056;14.408;2024-03-07T11:11:51;97913.66;;;6.43;79.91
38912;BME280;28444;48.056;14.408;2024-03-07T11:14:18;97907.19;;;6.33;81.04
38912;BME280;28444;48.056;14.408;2024-03-07T11:16:46;97909.78;;;6.38;82.06
38912;BME280;28444;48.056;14.408;2024-03-07T11:19:31;97908.03;;;6.27;78.39
38912;BME280;28444;48.056;14.408;2024-03-07T11:21:58;97918.16;;;6.40;81.27
38912;BME280;28444;48.056;14.408;2024-03-07T11:24:27;97912.28;;;6.49;81.44
38912;BME280;28444;48.056;14.408;2024-03-07T11:27:04;97913.94;;;6.53;81.11
38912;BME280;28444;48.056;14.408;2024-03-07T11:32:12;97905.38;;;6.48;81.29
38912;BME280;28444;48.056;14.408;2024-03-07T11:34:41;97901.22;;;6.34;79.97
38912;BME280;28444;48.056;14.408;2024-03-07T11:37:09;97908.13;;;6.35;82.86
38912;BME280;28444;48.056;14.408;2024-03-07T11:39:45;97905.84;;;6.39;82.72
38912;BME280;28444;48.056;14.408;2024-03-07T11:42:26;97905.06;;;6.39;81.85
38912;BME280;28444;48.056;14.408;2024-03-07T11:44:57;97906.66;;;6.34;81.18
38912;BME280;28444;48.056;14.408;2024-03-07T11:47:35;97902.50;;;6.33;82.80
38912;BME280;28444;48.056;14.408;2024-03-07T11:50:07;97898.97;;;6.25;82.17
38912;BME280;28444;48.056;14.408;2024-03-07T11:52:38;97894.53;;;6.35;83.30
38912;BME280;28444;48.056;14.408;2024-03-07T11:55:10;97898.09;;;6.43;84.69
38912;BME280;28444;48.056;14.408;2024-03-07T11:57:38;97889.94;;;6.43;84.64
38912;BME280;28444;48.056;14.408;2024-03-07T12:00:05;97894.22;;;6.39;84.72
38912;BME280;28444;48.056;14.408;2024-03-07T12:02:37;97897.78;;;6.34;84.40
38912;BME280;28444;48.056;14.408;2024-03-07T12:05:08;97896.19;;;6.38;85.48
38912;BME280;28444;48.056;14.408;2024-03-07T12:07:37;97883.56;;;6.41;85.32
38912;BME280;28444;48.056;14.408;2024-03-07T12:10:05;97887.81;;;6.49;86.53
38912;BME280;28444;48.056;14.408;2024-03-07T12:12:32;97881.78;;;6.43;82.59
38912;BME280;28444;48.056;14.408;2024-03-07T12:15:00;97879.09;;;6.30;82.37
38912;BME280;28444;48.056;14.408;2024-03-07T12:17:29;97874.94;;;6.16;82.67
38912;BME280;28444;48.056;14.408;2024-03-07T12:19:58;97873.06;;;6.11;83.80
38912;BME280;28444;48.056;14.408;2024-03-07T12:22:29;97870.56;;;5.99;79.10
38912;BME280;28444;48.056;14.408;2024-03-07T12:25:01;97850.94;;;6.07;80.58
38912;BME280;28444;48.056;14.408;2024-03-07T12:27:35;97856.78;;;6.11;78.90
38912;BME280;28444;48.056;14.408;2024-03-07T12:30:15;97857.59;;;6.06;78.60
38912;BME280;28444;48.056;14.408;2024-03-07T12:32:52;97844.41;;;6.23;80.40
38912;BME280;28444;48.056;14.408;2024-03-07T12:35:19;97837.81;;;6.32;79.35
38912;BME280;28444;48.056;14.408;2024-03-07T12:37:53;97837.31;;;6.33;80.36
38912;BME280;28444;48.056;14.408;2024-03-07T12:40:20;97839.00;;;6.23;79.33
38912;BME280;28444;48.056;14.408;2024-03-07T12:42:53;97836.28;;;6.23;79.24
38912;BME280;28444;48.056;14.408;2024-03-07T12:45:19;97839.84;;;6.18;78.64
38912;BME280;28444;48.056;14.408;2024-03-07T12:47:47;97841.84;;;6.17;79.92
38912;BME280;28444;48.056;14.408;2024-03-07T12:50:18;97837.31;;;6.20;79.74
38912;BME280;28444;48.056;14.408;2024-03-07T12:52:47;97837.00;;;6.23;80.71
38912;BME280;28444;48.056;14.408;2024-03-07T12:55:18;97830.53;;;6.26;79.89
38912;BME280;28444;48.056;14.408;2024-03-07T12:57:50;97837.59;;;6.43;78.89
38912;BME280;28444;48.056;14.408;2024-03-07T13:00:17;97834.50;;;6.60;79.04
38912;BME280;28444;48.056;14.408;2024-03-07T13:02:48;97834.25;;;6.71;76.57
38912;BME280;28444;48.056;14.408;2024-03-07T13:05:15;97837.25;;;6.81;75.54
38912;BME280;28444;48.056;14.408;2024-03-07T13:07:48;97841.88;;;6.93;74.84
38912;BME280;28444;48.056;14.408;2024-03-07T13:10:15;97849.19;;;6.98;74.48
38912;BME280;28444;48.056;14.408;2024-03-07T13:12:42;97838.44;;;6.93;73.50
38912;BME280;28444;48.056;14.408;2024-03-07T13:15:12;97842.69;;;6.81;74.58